Řízení letového provozu České republiky  
Aktualizace dat:  21.08.2019 07:08:25 UTC English version
   METEO Zobrazení stránky:  21.08.2019 07:09:27 UTC  
vysvětlivky
METAR EDDB 210650Z 30009KT CAVOK 17/11 Q1027 NOSIG=
METAR EDDC 210650Z 26005KT 220V300 CAVOK 16/13 Q1028 NOSIG=
METAR EDDE 210650Z 22006KT CAVOK 14/10 Q1029 NOSIG=
METAR EDDF 210650Z 19003KT 080V240 9999 BKN005 14/13 Q1029 BECMG CAVOK=
METAR EDDM 210650Z VRB01KT 9999 FEW008 15/13 Q1029 BECMG 08005KT=
METAR EDDN 210650Z 17001KT 9999 SCT006 15/12 Q1029 NOSIG=
METAR EDDP 210650Z 28008KT CAVOK 16/11 Q1028 NOSIG=
METAR EDDT 210650Z 29008KT 260V320 CAVOK 16/12 Q1027 NOSIG=
METAR EDQM 210650Z VRB02KT CAVOK 13/11 Q1029=
METAR EPBY 210700Z 26006KT 9999 BKN040 16/14 Q1025=
METAR EPGD 210700Z 30005KT 9999 -RA FEW036 BKN043 15/13 Q1024=
METAR EPKK 210700Z 25011KT 9999 BKN006 17/15 Q1023=
METAR EPKT 210700Z 33010KT 3500 -RADZ BR BKN003 15/15 Q1024=
METAR EPLL 210700Z 31008KT 270V350 6000 -DZ BKN005 OVC007 15/14 Q1024 =
METAR EPPO 210700Z 32005KT 9999 -RA FEW006 OVC046 15/14 Q1026=
METAR EPRZ 210700Z 26012KT CAVOK 24/19 Q1020=
METAR EPWA 210700Z 32012KT 9999 BKN010 16/15 Q1021 NOSIG=
METAR EPWR 210700Z 31008KT 8000 -RA BKN005 15/14 Q1027=
METAR LHBP 210700Z 29014KT CAVOK 23/18 Q1021 NOSIG=
METAR LHSM 210645Z AUTO 36022KT 9000 NSC 20/14 Q1022 NOSIG=
SPECI LKBC 210700Z AUTO 28005KT 9999 FEW006 BKN049 OVC099 15/14 Q1029=
METAR LKCV 210700Z 29010KT 9999 FEW026 BKN060 15/13 Q1028 NOSIG RMK BLU BLU=
METAR LKKB 210700Z 30004KT 260V330 CAVOK 16/13 Q1028 NOSIG RMK BLU BLU=
METAR LKKU 210700Z 01013G23KT 9999 BKN020 OVC024 17/14 Q1025=
METAR LKKV 210700Z VRB03KT 9999 FEW008 13/10 Q1029 RMK REG QNH 1022=
METAR LKLN 210700Z AUTO VRB02KT 9999 SCT006 OVC064 15/14 Q1029=
METAR LKMT 210700Z 35009KT 320V020 9999 -DZ BKN012 OVC019 16/14 Q1026 NOSIG RMK REG QNH 1022=
METAR LKNA 210700Z 31011KT 9999 BKN012 BKN120 15/13 Q1027 NOSIG RMK GRN GRN=
METAR LKPD 210700Z 27007KT 9999 -RA SCT009 BKN017 OVC042 15/14 Q1028 NOSIG RMK WHT WHT=
METAR LKPJ 210700Z AUTO 31010KT 290V350 9999 OVC031/// ///// Q////=
METAR LKPR 210700Z 28006KT CAVOK 15/13 Q1028 NOSIG RMK REG QNH 1022=
METAR LKTB 210700Z 33014KT 9999 FEW047 17/12 Q1026 NOSIG RMK REG QNH 1022=
METAR LKVO 210700Z 29006KT 9999 FEW011 BKN065 16/15 Q1028=
METAR LOWI 210650Z VRB03KT 9999 FEW007 BKN010 14/12 Q1028 BECMG SCT010 BKN060=
METAR LOWL 210650Z 29005KT 250V310 9999 -RA FEW005 SCT007 BKN009 15/14 Q1029 BECMG SCT007 BKN025=
METAR LOWS 210650Z 31003KT 280V340 8000 -RA FEW004 BKN010 BKN025 FEW030TCU 13/13 Q1030 TEMPO 4000 RA=
METAR LOWW 210650Z 31016KT 9999 BKN025 18/12 Q1026 NOSIG=
METAR LZIB 210700Z 33010KT 300V360 9999 BKN024 BKN072 19/13 Q1025 WS R13 NOSIG=
METAR LZKZ 210700Z 04005KT 360V060 CAVOK 25/18 Q1020 NOSIG=
METAR LZMC 210600Z 31012KT 9999 OVC021 17/13 Q1026=
METAR LZPP 210700Z 31010KT 9999 BKN020 20/15 Q1024=
METAR LZSL 210700Z VRB01KT 9999 FEW033 21/18 Q1022=
METAR LZTT 210700Z 07004KT 9999 FEW063 24/17 Q1022 NOSIG=
METAR LZZI 210700Z 09003KT 030V190 9999 SCT023 BKN033 18/14 Q1024=